Time;durP1;ratioP1;P1;durP2;ratioP2;P2;SDS_P1;SDS_P2;PMS_P1;PMS_P2;Temp;Humidity;BMP_temperature;BMP_pressure;BME280_temperature;BME280_humidity;BME280_pressure;Samples;Min_cycle;Max_cycle;Signal;HPM_P1;HPM_P2
2023/08/11 00:17:40;;;;;;;10.67;8.30;;;13.10;99.90;;;;;;4800696;28;20207;-83
2023/08/11 00:43:30;;;;;;;10.80;9.23;;;12.20;99.90;;;;;;4638442;29;20698;-83
2023/08/11 01:14:02;;;;;;;13.13;9.43;;;11.90;99.90;;;;;;4641973;29;20263;-82
2023/08/11 01:34:13;;;;;;;15.47;10.37;;;11.60;99.90;;;;;;4570628;30;21135;-82
2023/08/11 01:59:36;;;;;;;15.17;11.50;;;11.20;99.90;;;;;;4649237;30;20406;-82
2023/08/11 02:30:14;;;;;;;15.67;12.77;;;11.00;99.90;;;;;;4733775;29;20542;-81
2023/08/11 02:55:34;;;;;;;16.37;14.67;;;10.90;99.90;;;;;;4738653;29;20689;-83
2023/08/11 03:20:15;;;;;;;17.60;15.23;;;10.70;99.90;;;;;;4787143;29;20734;-81
2023/08/11 03:40:44;;;;;;;19.90;15.83;;;10.80;99.90;;;;;;4683483;29;20237;-83
2023/08/11 04:11:32;;;;;;;17.30;14.47;;;11.60;99.90;;;;;;4718310;29;21127;-82
2023/08/11 04:41:24;;;;;;;14.13;12.03;;;12.90;99.90;;;;;;4627182;29;20750;-83
2023/08/11 05:02:22;;;;;;;11.80;10.40;;;14.20;99.90;;;;;;4718324;29;20221;-85
2023/08/11 05:32:08;;;;;;;9.40;6.87;;;16.50;93.90;;;;;;4776872;29;20620;-81
2023/08/11 05:52:48;;;;;;;7.83;6.23;;;17.60;90.30;;;;;;4795598;29;20234;-83
2023/08/11 06:23:22;;;;;;;5.87;4.93;;;19.10;83.30;;;;;;4793028;29;20212;-84
2023/08/11 06:43:53;;;;;;;8.27;4.73;;;19.60;80.50;;;;;;4778461;29;20273;-85
2023/08/11 06:48:12;;;;;;;6.27;4.27;;;19.60;80.50;;;;;;4793245;29;21365;-85
2023/08/11 07:14:15;;;;;;;6.82;3.10;;;21.10;62.40;;;;;;4821428;29;20200;-85
2023/08/11 07:44:35;;;;;;;5.35;2.65;;;22.10;56.70;;;;;;4756916;29;20856;-87
2023/08/11 08:04:47;;;;;;;4.10;2.42;;;22.20;54.30;;;;;;4678281;30;20223;-86
2023/08/11 08:34:48;;;;;;;3.30;1.80;;;23.00;49.90;;;;;;4588819;30;20642;-82
2023/08/11 09:25:59;;;;;;;4.75;1.85;;;23.20;49.70;;;;;;4675687;29;20236;-84
2023/08/11 09:51:12;;;;;;;5.15;2.10;;;23.50;48.60;;;;;;4760254;29;20264;-84
2023/08/11 10:16:47;;;;;;;3.30;2.28;;;23.60;47.70;;;;;;4822830;29;20364;-83
2023/08/11 10:47:21;;;;;;;2.55;2.17;;;24.80;47.70;;;;;;4681358;29;20262;-85
2023/08/11 11:43:06;;;;;;;4.30;2.03;;;24.50;45.70;;;;;;4756534;29;20231;-84
2023/08/11 12:03:28;;;;;;;6.28;2.08;;;23.50;45.40;;;;;;4699306;29;20222;-83
2023/08/11 12:28:45;;;;;;;3.22;1.58;;;23.30;46.40;;;;;;4653062;30;20737;-83
2023/08/11 12:54:08;;;;;;;2.38;2.13;;;24.50;46.10;;;;;;4606043;30;20991;-84
2023/08/11 13:24:35;;;;;;;2.53;1.95;;;25.30;46.10;;;;;;4929865;28;20411;-85
2023/08/11 13:49:32;;;;;;;2.20;1.90;;;26.70;46.10;;;;;;4671053;29;20660;-86
2023/08/11 14:10:03;;;;;;;3.20;2.55;;;25.10;46.30;;;;;;4624289;30;20639;-84
2023/08/11 14:30:19;;;;;;;4.90;2.30;;;27.90;45.50;;;;;;4662448;29;20804;-84
2023/08/11 14:55:38;;;;;;;2.65;2.45;;;28.90;42.90;;;;;;4720996;29;20374;-84
2023/08/11 15:11:10;;;;;;;2.45;2.10;;;29.30;43.60;;;;;;4763944;29;21003;-86
2023/08/11 15:41:26;;;;;;;2.25;1.95;;;32.50;41.80;;;;;;4737340;29;20292;-85
2023/08/11 16:06:47;;;;;;;4.82;2.50;;;30.20;41.50;;;;;;4724149;29;20218;-84
2023/08/11 16:36:42;;;;;;;3.03;2.28;;;23.80;44.30;;;;;;4740960;29;20255;-87
2023/08/11 17:02:31;;;;;;;3.20;2.15;;;22.60;45.80;;;;;;4927146;28;20873;-82
2023/08/11 17:22:28;;;;;;;3.22;2.60;;;22.30;45.40;;;;;;4701365;29;20631;-82
2023/08/11 17:48:13;;;;;;;2.92;2.45;;;21.70;46.30;;;;;;4693000;29;20760;-85
2023/08/11 18:08:07;;;;;;;2.80;2.03;;;21.10;46.10;;;;;;4701834;29;21439;-83
2023/08/11 18:28:17;;;;;;;5.87;2.43;;;20.50;45.50;;;;;;4558110;30;20614;-87
2023/08/11 18:53:38;;;;;;;4.67;2.73;;;19.20;47.80;;;;;;4649301;30;21030;-87
2023/08/11 19:19:14;;;;;;;4.07;3.03;;;19.20;48.90;;;;;;4591791;30;20667;-84
2023/08/11 19:44:51;;;;;;;17.57;8.37;;;17.20;85.60;;;;;;4814062;29;20632;-85
2023/08/11 20:20:27;;;;;;;9.77;5.63;;;15.50;96.50;;;;;;4818818;29;20268;-85
2023/08/11 20:56:02;;;;;;;9.43;6.67;;;14.60;99.90;;;;;;4875883;28;20217;-85
2023/08/11 21:25:48;;;;;;;22.60;11.47;;;14.00;99.90;;;;;;4770020;29;20295;-86
2023/08/11 21:46:46;;;;;;;21.87;11.80;;;13.70;99.90;;;;;;4787610;29;20198;-84
2023/08/11 22:16:38;;;;;;;21.43;10.70;;;13.40;99.90;;;;;;4577162;30;20480;-85
2023/08/11 22:37:07;;;;;;;13.10;9.73;;;13.00;99.90;;;;;;4711806;29;21465;-84
2023/08/11 23:12:52;;;;;;;14.97;10.30;;;12.50;99.90;;;;;;4731142;29;20261;-85
2023/08/11 23:42:46;;;;;;;21.17;12.10;;;12.10;99.90;;;;;;4746405;29;20498;-83
